sensor_id;sensor_type;location;lat;lon;timestamp;P1;durP1;ratioP1;P2;durP2;ratioP2
13834;SDS011;6988;52.614;13.500;2023-04-01T00:01:03;9.73;;;4.30;;
13834;SDS011;6988;52.614;13.500;2023-04-01T00:05:57;4.70;;;3.53;;
13834;SDS011;6988;52.614;13.500;2023-04-01T00:10:50;6.50;;;4.07;;
13834;SDS011;6988;52.614;13.500;2023-04-01T00:15:42;6.70;;;4.33;;
13834;SDS011;6988;52.614;13.500;2023-04-01T00:20:35;7.70;;;4.80;;
13834;SDS011;6988;52.614;13.500;2023-04-01T00:31:59;6.37;;;4.27;;
13834;SDS011;6988;52.614;13.500;2023-04-01T00:43:23;6.03;;;4.23;;
13834;SDS011;6988;52.614;13.500;2023-04-01T00:48:16;6.97;;;4.30;;
13834;SDS011;6988;52.614;13.500;2023-04-01T00:53:12;7.17;;;4.13;;
13834;SDS011;6988;52.614;13.500;2023-04-01T00:58:07;4.77;;;3.77;;
13834;SDS011;6988;52.614;13.500;2023-04-01T01:03:07;6.67;;;3.53;;
13834;SDS011;6988;52.614;13.500;2023-04-01T01:14:40;6.17;;;4.63;;
13834;SDS011;6988;52.614;13.500;2023-04-01T01:19:55;7.37;;;5.00;;
13834;SDS011;6988;52.614;13.500;2023-04-01T01:25:25;7.83;;;4.47;;
13834;SDS011;6988;52.614;13.500;2023-04-01T01:30:40;6.90;;;5.13;;
13834;SDS011;6988;52.614;13.500;2023-04-01T01:35:44;9.03;;;6.30;;
13834;SDS011;6988;52.614;13.500;2023-04-01T01:40:44;9.53;;;6.93;;
13834;SDS011;6988;52.614;13.500;2023-04-01T01:45:44;9.17;;;6.20;;
13834;SDS011;6988;52.614;13.500;2023-04-01T01:50:40;5.90;;;4.30;;
13834;SDS011;6988;52.614;13.500;2023-04-01T01:55:36;7.23;;;5.03;;
13834;SDS011;6988;52.614;13.500;2023-04-01T02:00:32;7.73;;;5.10;;
13834;SDS011;6988;52.614;13.500;2023-04-01T02:05:25;6.10;;;4.77;;
13834;SDS011;6988;52.614;13.500;2023-04-01T02:10:28;10.13;;;5.57;;
13834;SDS011;6988;52.614;13.500;2023-04-01T02:15:28;8.73;;;5.43;;
13834;SDS011;6988;52.614;13.500;2023-04-01T02:20:28;6.73;;;5.40;;
13834;SDS011;6988;52.614;13.500;2023-04-01T02:25:22;5.50;;;4.43;;
13834;SDS011;6988;52.614;13.500;2023-04-01T02:30:18;7.20;;;5.50;;
13834;SDS011;6988;52.614;13.500;2023-04-01T02:35:13;7.50;;;4.60;;
13834;SDS011;6988;52.614;13.500;2023-04-01T02:40:09;8.10;;;5.50;;
13834;SDS011;6988;52.614;13.500;2023-04-01T02:45:05;6.57;;;5.27;;
13834;SDS011;6988;52.614;13.500;2023-04-01T02:49:58;7.03;;;5.17;;
13834;SDS011;6988;52.614;13.500;2023-04-01T02:54:52;8.37;;;5.13;;
13834;SDS011;6988;52.614;13.500;2023-04-01T02:59:44;8.47;;;5.40;;
13834;SDS011;6988;52.614;13.500;2023-04-01T03:04:36;7.30;;;5.47;;
13834;SDS011;6988;52.614;13.500;2023-04-01T03:09:28;5.73;;;5.03;;
13834;SDS011;6988;52.614;13.500;2023-04-01T03:14:21;6.80;;;4.83;;
13834;SDS011;6988;52.614;13.500;2023-04-01T03:19:13;6.10;;;4.67;;
13834;SDS011;6988;52.614;13.500;2023-04-01T03:24:07;7.07;;;4.87;;
13834;SDS011;6988;52.614;13.500;2023-04-01T03:28:59;9.03;;;5.63;;
13834;SDS011;6988;52.614;13.500;2023-04-01T03:33:52;6.77;;;4.57;;
13834;SDS011;6988;52.614;13.500;2023-04-01T03:38:44;8.57;;;5.40;;
13834;SDS011;6988;52.614;13.500;2023-04-01T03:43:42;8.67;;;5.77;;
13834;SDS011;6988;52.614;13.500;2023-04-01T03:48:35;6.80;;;5.53;;
13834;SDS011;6988;52.614;13.500;2023-04-01T03:53:29;9.10;;;5.40;;
13834;SDS011;6988;52.614;13.500;2023-04-01T03:58:24;8.13;;;5.90;;
13834;SDS011;6988;52.614;13.500;2023-04-01T04:03:17;10.27;;;6.23;;
13834;SDS011;6988;52.614;13.500;2023-04-01T04:08:10;8.67;;;5.80;;
13834;SDS011;6988;52.614;13.500;2023-04-01T04:13:04;10.70;;;5.80;;
13834;SDS011;6988;52.614;13.500;2023-04-01T04:18:00;10.07;;;6.17;;
13834;SDS011;6988;52.614;13.500;2023-04-01T04:22:52;10.73;;;5.90;;
13834;SDS011;6988;52.614;13.500;2023-04-01T04:27:46;9.13;;;5.67;;
13834;SDS011;6988;52.614;13.500;2023-04-01T04:32:41;9.33;;;5.50;;
13834;SDS011;6988;52.614;13.500;2023-04-01T04:44:07;9.37;;;6.40;;
13834;SDS011;6988;52.614;13.500;2023-04-01T04:49:00;10.70;;;5.97;;
13834;SDS011;6988;52.614;13.500;2023-04-01T04:53:53;8.40;;;5.43;;
13834;SDS011;6988;52.614;13.500;2023-04-01T04:58:55;9.57;;;6.03;;
13834;SDS011;6988;52.614;13.500;2023-04-01T05:03:52;7.43;;;6.30;;
13834;SDS011;6988;52.614;13.500;2023-04-01T05:08:45;8.07;;;5.93;;
13834;SDS011;6988;52.614;13.500;2023-04-01T05:13:37;9.33;;;6.87;;
13834;SDS011;6988;52.614;13.500;2023-04-01T05:18:29;11.67;;;7.37;;
13834;SDS011;6988;52.614;13.500;2023-04-01T05:23:21;11.73;;;7.33;;
13834;SDS011;6988;52.614;13.500;2023-04-01T05:28:15;11.13;;;7.97;;
13834;SDS011;6988;52.614;13.500;2023-04-01T05:33:09;12.43;;;7.80;;
13834;SDS011;6988;52.614;13.500;2023-04-01T05:38:03;11.40;;;8.33;;
13834;SDS011;6988;52.614;13.500;2023-04-01T05:42:55;12.27;;;6.57;;
13834;SDS011;6988;52.614;13.500;2023-04-01T05:47:49;10.57;;;6.67;;
13834;SDS011;6988;52.614;13.500;2023-04-01T05:52:42;10.63;;;7.30;;
13834;SDS011;6988;52.614;13.500;2023-04-01T05:57:34;11.83;;;6.87;;
13834;SDS011;6988;52.614;13.500;2023-04-01T06:02:28;10.43;;;6.93;;
13834;SDS011;6988;52.614;13.500;2023-04-01T06:07:21;14.43;;;8.20;;
13834;SDS011;6988;52.614;13.500;2023-04-01T06:12:23;12.07;;;7.73;;
13834;SDS011;6988;52.614;13.500;2023-04-01T06:17:31;8.63;;;6.00;;
13834;SDS011;6988;52.614;13.500;2023-04-01T06:23:26;9.93;;;6.33;;
13834;SDS011;6988;52.614;13.500;2023-04-01T06:28:51;10.93;;;6.93;;
13834;SDS011;6988;52.614;13.500;2023-04-01T06:34:26;10.50;;;7.00;;
13834;SDS011;6988;52.614;13.500;2023-04-01T06:45:36;12.27;;;6.73;;
13834;SDS011;6988;52.614;13.500;2023-04-01T06:57:05;9.17;;;6.33;;
13834;SDS011;6988;52.614;13.500;2023-04-01T07:02:16;8.27;;;6.13;;
13834;SDS011;6988;52.614;13.500;2023-04-01T07:07:21;7.77;;;5.50;;
13834;SDS011;6988;52.614;13.500;2023-04-01T07:12:31;7.47;;;5.37;;
13834;SDS011;6988;52.614;13.500;2023-04-01T07:17:55;9.90;;;5.73;;
13834;SDS011;6988;52.614;13.500;2023-04-01T07:22:58;7.50;;;5.33;;
13834;SDS011;6988;52.614;13.500;2023-04-01T07:28:31;10.23;;;6.73;;
13834;SDS011;6988;52.614;13.500;2023-04-01T07:33:33;9.00;;;6.43;;
13834;SDS011;6988;52.614;13.500;2023-04-01T07:38:36;8.13;;;6.30;;
13834;SDS011;6988;52.614;13.500;2023-04-01T07:44:04;8.30;;;5.90;;
13834;SDS011;6988;52.614;13.500;2023-04-01T07:55:45;10.90;;;7.30;;
13834;SDS011;6988;52.614;13.500;2023-04-01T08:00:46;11.37;;;7.67;;
13834;SDS011;6988;52.614;13.500;2023-04-01T08:05:55;11.27;;;8.23;;
13834;SDS011;6988;52.614;13.500;2023-04-01T08:10:57;10.97;;;8.33;;
13834;SDS011;6988;52.614;13.500;2023-04-01T08:16:26;10.97;;;8.13;;
13834;SDS011;6988;52.614;13.500;2023-04-01T08:21:31;12.80;;;8.87;;
13834;SDS011;6988;52.614;13.500;2023-04-01T08:26:32;12.40;;;9.63;;
13834;SDS011;6988;52.614;13.500;2023-04-01T08:31:33;13.20;;;9.87;;
13834;SDS011;6988;52.614;13.500;2023-04-01T08:36:31;14.13;;;11.40;;
13834;SDS011;6988;52.614;13.500;2023-04-01T08:53:00;16.40;;;13.03;;
13834;SDS011;6988;52.614;13.500;2023-04-01T08:58:18;14.43;;;12.33;;
13834;SDS011;6988;52.614;13.500;2023-04-01T09:04:04;14.47;;;12.27;;
13834;SDS011;6988;52.614;13.500;2023-04-01T09:09:39;16.63;;;13.47;;
13834;SDS011;6988;52.614;13.500;2023-04-01T09:20:32;13.30;;;11.00;;
13834;SDS011;6988;52.614;13.500;2023-04-01T09:26:07;17.40;;;13.20;;
13834;SDS011;6988;52.614;13.500;2023-04-01T09:31:53;16.70;;;13.33;;
13834;SDS011;6988;52.614;13.500;2023-04-01T09:37:21;13.90;;;12.40;;
13834;SDS011;6988;52.614;13.500;2023-04-01T09:42:45;13.03;;;11.73;;
13834;SDS011;6988;52.614;13.500;2023-04-01T09:48:03;14.90;;;13.23;;
13834;SDS011;6988;52.614;13.500;2023-04-01T09:53:14;13.13;;;11.40;;
13834;SDS011;6988;52.614;13.500;2023-04-01T09:58:33;12.97;;;11.57;;
13834;SDS011;6988;52.614;13.500;2023-04-01T10:04:46;14.37;;;12.77;;
13834;SDS011;6988;52.614;13.500;2023-04-01T10:10:32;15.17;;;13.57;;
13834;SDS011;6988;52.614;13.500;2023-04-01T10:22:02;14.93;;;13.10;;
13834;SDS011;6988;52.614;13.500;2023-04-01T10:27:21;12.83;;;11.43;;
13834;SDS011;6988;52.614;13.500;2023-04-01T10:33:19;12.60;;;11.30;;
13834;SDS011;6988;52.614;13.500;2023-04-01T10:39:02;12.03;;;10.77;;
13834;SDS011;6988;52.614;13.500;2023-04-01T10:50:53;13.33;;;11.20;;
13834;SDS011;6988;52.614;13.500;2023-04-01T11:01:57;12.00;;;10.80;;
13834;SDS011;6988;52.614;13.500;2023-04-01T11:07:40;11.30;;;10.17;;
13834;SDS011;6988;52.614;13.500;2023-04-01T11:13:30;11.93;;;10.80;;
13834;SDS011;6988;52.614;13.500;2023-04-01T11:25:08;12.33;;;11.00;;
13834;SDS011;6988;52.614;13.500;2023-04-01T11:31:04;12.50;;;11.30;;
13834;SDS011;6988;52.614;13.500;2023-04-01T11:36:26;11.10;;;10.00;;
13834;SDS011;6988;52.614;13.500;2023-04-01T11:41:41;13.27;;;11.87;;
13834;SDS011;6988;52.614;13.500;2023-04-01T11:47:28;13.47;;;12.07;;
13834;SDS011;6988;52.614;13.500;2023-04-01T11:52:51;11.30;;;10.20;;
13834;SDS011;6988;52.614;13.500;2023-04-01T11:58:18;11.53;;;10.43;;
13834;SDS011;6988;52.614;13.500;2023-04-01T12:03:36;12.00;;;10.80;;
13834;SDS011;6988;52.614;13.500;2023-04-01T12:08:49;11.77;;;10.67;;
13834;SDS011;6988;52.614;13.500;2023-04-01T12:13:53;13.13;;;11.83;;
13834;SDS011;6988;52.614;13.500;2023-04-01T12:18:54;12.80;;;11.50;;
13834;SDS011;6988;52.614;13.500;2023-04-01T12:29:37;14.33;;;12.93;;
13834;SDS011;6988;52.614;13.500;2023-04-01T12:34:58;12.93;;;11.53;;
13834;SDS011;6988;52.614;13.500;2023-04-01T12:40:20;13.87;;;12.47;;
13834;SDS011;6988;52.614;13.500;2023-04-01T12:45:35;13.97;;;12.57;;
13834;SDS011;6988;52.614;13.500;2023-04-01T12:50:46;15.13;;;13.50;;
13834;SDS011;6988;52.614;13.500;2023-04-01T12:56:24;13.03;;;11.70;;
13834;SDS011;6988;52.614;13.500;2023-04-01T13:07:10;13.87;;;12.40;;
13834;SDS011;6988;52.614;13.500;2023-04-01T13:17:52;12.57;;;11.27;;
13834;SDS011;6988;52.614;13.500;2023-04-01T13:22:58;10.10;;;9.10;;
13834;SDS011;6988;52.614;13.500;2023-04-01T13:28:04;8.90;;;8.00;;
13834;SDS011;6988;52.614;13.500;2023-04-01T13:33:11;7.63;;;6.63;;
13834;SDS011;6988;52.614;13.500;2023-04-01T13:38:20;7.43;;;6.63;;
13834;SDS011;6988;52.614;13.500;2023-04-01T13:43:36;7.63;;;6.80;;
13834;SDS011;6988;52.614;13.500;2023-04-01T13:48:42;8.00;;;7.20;;
13834;SDS011;6988;52.614;13.500;2023-04-01T13:54:11;8.83;;;5.83;;
13834;SDS011;6988;52.614;13.500;2023-04-01T13:59:29;6.10;;;5.40;;
13834;SDS011;6988;52.614;13.500;2023-04-01T14:04:50;5.10;;;4.30;;
13834;SDS011;6988;52.614;13.500;2023-04-01T14:09:59;5.67;;;4.50;;
13834;SDS011;6988;52.614;13.500;2023-04-01T14:15:19;5.50;;;4.90;;
13834;SDS011;6988;52.614;13.500;2023-04-01T14:20:26;5.33;;;4.83;;
13834;SDS011;6988;52.614;13.500;2023-04-01T14:25:34;5.33;;;4.40;;
13834;SDS011;6988;52.614;13.500;2023-04-01T14:30:57;5.07;;;4.40;;
13834;SDS011;6988;52.614;13.500;2023-04-01T14:36:25;4.97;;;4.03;;
13834;SDS011;6988;52.614;13.500;2023-04-01T14:41:35;5.63;;;4.37;;
13834;SDS011;6988;52.614;13.500;2023-04-01T14:46:48;5.30;;;3.80;;
13834;SDS011;6988;52.614;13.500;2023-04-01T14:52:16;5.23;;;4.30;;
13834;SDS011;6988;52.614;13.500;2023-04-01T14:57:22;4.73;;;4.23;;
13834;SDS011;6988;52.614;13.500;2023-04-01T15:02:28;7.00;;;4.63;;
13834;SDS011;6988;52.614;13.500;2023-04-01T15:07:51;6.30;;;5.50;;
13834;SDS011;6988;52.614;13.500;2023-04-01T15:13:10;6.67;;;5.97;;
13834;SDS011;6988;52.614;13.500;2023-04-01T15:18:11;8.57;;;6.73;;
13834;SDS011;6988;52.614;13.500;2023-04-01T15:23:19;8.90;;;8.00;;
13834;SDS011;6988;52.614;13.500;2023-04-01T15:28:27;7.33;;;6.00;;
13834;SDS011;6988;52.614;13.500;2023-04-01T15:33:40;7.77;;;6.33;;
13834;SDS011;6988;52.614;13.500;2023-04-01T15:38:46;7.63;;;6.33;;
13834;SDS011;6988;52.614;13.500;2023-04-01T15:43:44;7.60;;;5.60;;
13834;SDS011;6988;52.614;13.500;2023-04-01T15:48:43;6.53;;;5.13;;
13834;SDS011;6988;52.614;13.500;2023-04-01T15:54:15;7.33;;;5.37;;
13834;SDS011;6988;52.614;13.500;2023-04-01T15:59:29;6.17;;;5.13;;
13834;SDS011;6988;52.614;13.500;2023-04-01T16:04:49;6.40;;;4.90;;
13834;SDS011;6988;52.614;13.500;2023-04-01T16:09:56;5.33;;;4.33;;
13834;SDS011;6988;52.614;13.500;2023-04-01T16:15:08;5.43;;;3.67;;
13834;SDS011;6988;52.614;13.500;2023-04-01T16:20:17;5.77;;;4.37;;
13834;SDS011;6988;52.614;13.500;2023-04-01T16:25:17;4.27;;;3.50;;
13834;SDS011;6988;52.614;13.500;2023-04-01T16:30:26;5.93;;;3.87;;
13834;SDS011;6988;52.614;13.500;2023-04-01T16:35:31;4.77;;;4.17;;
13834;SDS011;6988;52.614;13.500;2023-04-01T16:40:37;7.63;;;5.47;;
13834;SDS011;6988;52.614;13.500;2023-04-01T16:45:38;7.00;;;5.77;;
13834;SDS011;6988;52.614;13.500;2023-04-01T16:50:48;6.43;;;4.40;;
13834;SDS011;6988;52.614;13.500;2023-04-01T16:55:50;5.77;;;4.40;;
13834;SDS011;6988;52.614;13.500;2023-04-01T17:00:51;6.23;;;5.00;;
13834;SDS011;6988;52.614;13.500;2023-04-01T17:05:54;6.60;;;5.07;;
13834;SDS011;6988;52.614;13.500;2023-04-01T17:11:03;9.13;;;6.90;;
13834;SDS011;6988;52.614;13.500;2023-04-01T17:16:20;9.00;;;7.10;;
13834;SDS011;6988;52.614;13.500;2023-04-01T17:21:49;12.33;;;9.40;;
13834;SDS011;6988;52.614;13.500;2023-04-01T17:26:54;5.93;;;4.73;;
13834;SDS011;6988;52.614;13.500;2023-04-01T17:32:01;7.37;;;5.27;;
13834;SDS011;6988;52.614;13.500;2023-04-01T17:37:06;8.23;;;5.37;;
13834;SDS011;6988;52.614;13.500;2023-04-01T17:42:15;8.40;;;6.20;;
13834;SDS011;6988;52.614;13.500;2023-04-01T17:47:25;7.03;;;5.40;;
13834;SDS011;6988;52.614;13.500;2023-04-01T17:52:37;6.73;;;5.03;;
13834;SDS011;6988;52.614;13.500;2023-04-01T17:57:41;7.00;;;5.07;;
13834;SDS011;6988;52.614;13.500;2023-04-01T18:02:42;7.90;;;6.00;;
13834;SDS011;6988;52.614;13.500;2023-04-01T18:07:52;7.17;;;5.30;;
13834;SDS011;6988;52.614;13.500;2023-04-01T18:13:13;8.47;;;5.77;;
13834;SDS011;6988;52.614;13.500;2023-04-01T18:18:46;8.67;;;6.37;;
13834;SDS011;6988;52.614;13.500;2023-04-01T18:23:51;10.00;;;6.13;;
13834;SDS011;6988;52.614;13.500;2023-04-01T18:28:52;9.60;;;6.87;;
13834;SDS011;6988;52.614;13.500;2023-04-01T18:46:54;9.70;;;7.10;;
13834;SDS011;6988;52.614;13.500;2023-04-01T18:52:03;11.03;;;7.63;;
13834;SDS011;6988;52.614;13.500;2023-04-01T18:57:10;9.60;;;7.13;;
13834;SDS011;6988;52.614;13.500;2023-04-01T19:02:13;10.33;;;8.00;;
13834;SDS011;6988;52.614;13.500;2023-04-01T19:13:51;14.80;;;8.80;;
13834;SDS011;6988;52.614;13.500;2023-04-01T19:18:59;12.03;;;8.23;;
13834;SDS011;6988;52.614;13.500;2023-04-01T19:24:16;13.30;;;9.33;;
13834;SDS011;6988;52.614;13.500;2023-04-01T19:29:40;11.97;;;9.13;;
13834;SDS011;6988;52.614;13.500;2023-04-01T19:34:54;12.97;;;9.50;;
13834;SDS011;6988;52.614;13.500;2023-04-01T19:46:36;14.80;;;9.80;;
13834;SDS011;6988;52.614;13.500;2023-04-01T19:51:37;14.60;;;10.13;;
13834;SDS011;6988;52.614;13.500;2023-04-01T19:56:42;15.03;;;10.30;;
13834;SDS011;6988;52.614;13.500;2023-04-01T20:01:45;13.83;;;9.77;;
13834;SDS011;6988;52.614;13.500;2023-04-01T20:06:50;13.83;;;9.27;;
13834;SDS011;6988;52.614;13.500;2023-04-01T20:11:55;13.53;;;9.00;;
13834;SDS011;6988;52.614;13.500;2023-04-01T20:16:56;11.97;;;9.60;;
13834;SDS011;6988;52.614;13.500;2023-04-01T20:21:57;12.30;;;9.27;;
13834;SDS011;6988;52.614;13.500;2023-04-01T20:26:58;13.83;;;9.10;;
13834;SDS011;6988;52.614;13.500;2023-04-01T20:31:58;15.80;;;9.57;;
13834;SDS011;6988;52.614;13.500;2023-04-01T20:37:15;17.30;;;9.67;;
13834;SDS011;6988;52.614;13.500;2023-04-01T20:42:27;15.57;;;10.63;;
13834;SDS011;6988;52.614;13.500;2023-04-01T20:47:42;13.47;;;9.90;;
13834;SDS011;6988;52.614;13.500;2023-04-01T20:53:04;13.37;;;9.40;;
13834;SDS011;6988;52.614;13.500;2023-04-01T20:58:06;13.30;;;10.03;;
13834;SDS011;6988;52.614;13.500;2023-04-01T21:03:13;15.03;;;9.13;;
13834;SDS011;6988;52.614;13.500;2023-04-01T21:08:20;12.33;;;9.00;;
13834;SDS011;6988;52.614;13.500;2023-04-01T21:13:36;14.40;;;9.30;;
13834;SDS011;6988;52.614;13.500;2023-04-01T21:18:54;12.63;;;8.97;;
13834;SDS011;6988;52.614;13.500;2023-04-01T21:29:48;12.50;;;8.27;;
13834;SDS011;6988;52.614;13.500;2023-04-01T21:34:55;11.43;;;7.50;;
13834;SDS011;6988;52.614;13.500;2023-04-01T22:09:29;10.30;;;6.67;;
13834;SDS011;6988;52.614;13.500;2023-04-01T22:14:31;9.83;;;5.63;;
13834;SDS011;6988;52.614;13.500;2023-04-01T22:19:38;6.20;;;5.30;;
13834;SDS011;6988;52.614;13.500;2023-04-01T22:24:43;7.00;;;4.80;;
13834;SDS011;6988;52.614;13.500;2023-04-01T22:29:54;7.40;;;5.00;;
13834;SDS011;6988;52.614;13.500;2023-04-01T22:35:03;5.90;;;5.23;;
13834;SDS011;6988;52.614;13.500;2023-04-01T22:46:44;8.00;;;6.37;;
13834;SDS011;6988;52.614;13.500;2023-04-01T22:51:51;6.43;;;5.47;;
13834;SDS011;6988;52.614;13.500;2023-04-01T22:56:55;6.93;;;5.13;;
13834;SDS011;6988;52.614;13.500;2023-04-01T23:01:54;5.67;;;4.10;;
13834;SDS011;6988;52.614;13.500;2023-04-01T23:06:54;5.50;;;3.83;;
13834;SDS011;6988;52.614;13.500;2023-04-01T23:11:54;5.87;;;4.63;;
13834;SDS011;6988;52.614;13.500;2023-04-01T23:16:51;6.50;;;4.73;;
13834;SDS011;6988;52.614;13.500;2023-04-01T23:21:58;7.80;;;5.87;;
13834;SDS011;6988;52.614;13.500;2023-04-01T23:26:56;8.97;;;4.97;;
13834;SDS011;6988;52.614;13.500;2023-04-01T23:31:56;8.33;;;5.70;;
13834;SDS011;6988;52.614;13.500;2023-04-01T23:36:50;8.67;;;6.10;;
13834;SDS011;6988;52.614;13.500;2023-04-01T23:41:48;9.37;;;5.67;;
